Time;durP1;ratioP1;P1;durP2;ratioP2;P2;SDS_P1;SDS_P2;PMS_P1;PMS_P2;Temp;Humidity;BMP_temperature;BMP_pressure;BME280_temperature;BME280_humidity;BME280_pressure;Samples;Min_cycle;Max_cycle;Signal;HPM_P1;HPM_P2
2022/01/30 00:02:26;;;;;;;18.35;2.80;;;7.60;99.90;;;;;;5039613;28;20442;-63
2022/01/30 00:04:51;;;;;;;19.42;4.55;;;7.60;99.90;;;;;;5039731;28;20498;-64
2022/01/30 00:07:17;;;;;;;20.05;3.25;;;7.60;99.90;;;;;;5037832;28;20037;-64
2022/01/30 00:09:43;;;;;;;16.63;4.22;;;7.50;99.90;;;;;;5037675;28;20119;-63
2022/01/30 00:12:09;;;;;;;20.05;4.40;;;7.50;99.90;;;;;;5035826;28;20051;-63
2022/01/30 00:14:37;;;;;;;21.70;4.35;;;7.40;99.90;;;;;;5032430;28;20092;-63
2022/01/30 00:17:17;;;;;;;17.00;3.97;;;7.40;99.90;;;;;;5016928;28;20030;-63
2022/01/30 00:19:52;;;;;;;22.33;5.70;;;7.40;99.90;;;;;;5016045;28;20393;-63
2022/01/30 00:23:23;;;;;;;21.75;4.20;;;7.20;99.90;;;;;;5015928;28;20049;-63
2022/01/30 00:25:25;;;;;;;15.50;3.75;;;7.30;99.90;;;;;;5016021;28;20381;-63
2022/01/30 00:28:05;;;;;;;23.90;5.20;;;7.00;99.90;;;;;;5015601;28;20065;-63
2022/01/30 00:30:34;;;;;;;21.80;3.78;;;7.20;99.90;;;;;;5016270;28;20046;-60
2022/01/30 00:33:03;;;;;;;19.20;4.63;;;7.00;99.90;;;;;;5017484;28;20056;-61
2022/01/30 00:35:33;;;;;;;19.17;3.42;;;6.90;99.90;;;;;;5016119;28;20413;-61
2022/01/30 00:37:59;;;;;;;24.50;4.22;;;7.00;99.90;;;;;;5015372;28;20049;-61
2022/01/30 00:40:24;;;;;;;20.63;4.00;;;7.10;99.90;;;;;;5017335;28;20042;-61
2022/01/30 00:42:50;;;;;;;27.05;4.43;;;7.10;99.90;;;;;;5016800;28;20038;-61
2022/01/30 00:45:16;;;;;;;25.52;4.85;;;7.10;99.90;;;;;;5015388;28;20502;-60
2022/01/30 00:47:41;;;;;;;14.27;3.83;;;7.30;99.90;;;;;;5015521;28;20093;-61
2022/01/30 00:50:07;;;;;;;14.95;3.92;;;7.10;99.90;;;;;;4998745;28;20503;-61
2022/01/30 00:52:33;;;;;;;21.00;4.18;;;7.00;99.90;;;;;;5013511;28;20166;-61
2022/01/30 00:54:58;;;;;;;18.63;3.83;;;7.10;99.90;;;;;;5019411;28;20455;-60
2022/01/30 00:57:24;;;;;;;18.85;3.50;;;6.90;99.90;;;;;;5034998;28;20045;-61
2022/01/30 00:59:49;;;;;;;20.73;4.18;;;7.00;99.90;;;;;;5036787;28;20491;-60
2022/01/30 01:02:17;;;;;;;14.10;3.15;;;6.90;99.90;;;;;;5036166;28;20034;-61
2022/01/30 01:04:43;;;;;;;20.42;3.45;;;6.80;99.90;;;;;;5035031;28;20047;-60
2022/01/30 01:07:15;;;;;;;15.15;3.33;;;7.00;99.90;;;;;;5035894;28;20449;-60
2022/01/30 01:09:42;;;;;;;17.90;3.88;;;6.50;99.90;;;;;;5018648;28;20051;-60
2022/01/30 01:25:49;;;;;;;19.83;3.00;;;;;;;;;;5034493;28;20050;-60
2022/01/30 01:28:14;;;;;;;13.35;2.97;;;6.40;99.90;;;;;;5034859;28;20042;-60
2022/01/30 01:30:40;;;;;;;13.73;3.53;;;6.40;99.90;;;;;;5035408;28;20079;-60
2022/01/30 01:33:06;;;;;;;18.77;3.53;;;6.40;99.90;;;;;;5033905;28;20050;-61
2022/01/30 01:35:32;;;;;;;23.63;3.80;;;6.50;99.90;;;;;;5034051;28;20041;-61
2022/01/30 01:37:58;;;;;;;21.00;3.08;;;6.30;99.90;;;;;;5034952;28;20090;-60
2022/01/30 01:40:23;;;;;;;20.40;3.78;;;6.20;99.90;;;;;;5034174;28;20048;-60
2022/01/30 01:42:49;;;;;;;23.73;3.67;;;6.30;99.90;;;;;;5034581;28;20076;-60
2022/01/30 01:45:19;;;;;;;15.75;3.33;;;6.50;99.90;;;;;;5034916;28;20041;-60
2022/01/30 01:47:46;;;;;;;19.00;4.93;;;6.30;99.90;;;;;;5034610;28;20045;-60
2022/01/30 01:50:17;;;;;;;14.38;3.63;;;;;;;;;;5033833;28;20503;-60
2022/01/30 01:52:45;;;;;;;19.75;4.18;;;6.30;99.90;;;;;;5035775;28;20049;-61
2022/01/30 01:55:11;;;;;;;25.75;4.88;;;6.30;99.90;;;;;;5035862;28;20499;-61
2022/01/30 01:57:36;;;;;;;25.15;4.63;;;6.20;99.90;;;;;;5034363;28;20095;-60
2022/01/30 02:00:04;;;;;;;22.08;4.38;;;6.40;99.90;;;;;;5035862;28;20479;-60
2022/01/30 02:02:29;;;;;;;23.90;4.15;;;6.20;99.90;;;;;;5034707;28;20045;-60
2022/01/30 02:04:58;;;;;;;27.55;4.15;;;6.20;99.90;;;;;;5035345;28;20107;-60
2022/01/30 02:10:02;;;;;;;20.10;3.30;;;6.40;99.90;;;;;;5033886;28;20052;-60
2022/01/30 02:12:30;;;;;;;20.05;4.10;;;6.40;99.90;;;;;;5035193;28;20164;-61
2022/01/30 02:25:49;;;;;;;24.55;3.80;;;;;;;;;;5033894;28;20048;-60
2022/01/30 02:28:18;;;;;;;30.17;5.15;;;6.50;99.90;;;;;;5033465;28;20038;-60
2022/01/30 02:30:57;;;;;;;22.17;4.38;;;6.60;99.90;;;;;;5017644;28;20056;-60
2022/01/30 02:33:23;;;;;;;25.88;5.82;;;6.70;99.90;;;;;;5053655;28;20048;-61
2022/01/30 02:35:49;;;;;;;25.23;5.38;;;6.70;99.90;;;;;;5037358;28;20041;-60
2022/01/30 02:38:16;;;;;;;32.60;6.55;;;6.50;99.90;;;;;;5038418;28;20042;-60
2022/01/30 02:40:45;;;;;;;26.98;4.57;;;;;;;;;;5020594;28;20052;-62
2022/01/30 02:43:13;;;;;;;24.13;4.93;;;6.50;99.90;;;;;;5036118;28;20052;-62
2022/01/30 02:45:44;;;;;;;22.60;5.28;;;6.40;99.90;;;;;;5036724;28;20042;-62
2022/01/30 02:50:48;;;;;;;21.98;4.30;;;6.50;99.90;;;;;;5037862;28;20065;-61
2022/01/30 02:53:14;;;;;;;21.92;3.33;;;6.70;99.90;;;;;;5036947;28;20103;-62
2022/01/30 02:55:40;;;;;;;22.48;4.88;;;6.60;99.90;;;;;;5037270;28;20049;-62
2022/01/30 02:58:05;;;;;;;22.05;3.63;;;6.60;99.90;;;;;;5037925;28;20084;-61
2022/01/30 03:00:31;;;;;;;15.25;3.55;;;6.60;99.90;;;;;;5037960;28;20041;-62
2022/01/30 03:02:57;;;;;;;26.20;3.97;;;6.50;99.90;;;;;;5036772;28;20575;-63
2022/01/30 03:05:23;;;;;;;22.92;3.63;;;6.60;99.90;;;;;;5038021;28;20116;-62
2022/01/30 03:07:49;;;;;;;22.40;4.22;;;;;;;;;;5036700;28;20403;-62
2022/01/30 03:10:15;;;;;;;25.33;4.20;;;6.30;99.90;;;;;;5036626;28;20166;-62
2022/01/30 03:12:41;;;;;;;18.80;4.43;;;6.30;99.90;;;;;;5036734;28;20465;-61
2022/01/30 03:15:07;;;;;;;22.67;4.38;;;6.10;99.90;;;;;;5036595;28;20046;-62
2022/01/30 03:17:33;;;;;;;30.45;5.25;;;6.20;99.90;;;;;;5020064;28;20041;-62
2022/01/30 03:19:59;;;;;;;16.88;4.65;;;6.10;99.90;;;;;;5036854;28;20103;-61
2022/01/30 03:22:26;;;;;;;30.55;6.25;;;6.10;99.90;;;;;;5036720;28;20045;-61
2022/01/30 03:24:51;;;;;;;23.17;5.35;;;6.20;99.90;;;;;;5052230;28;20519;-62
2022/01/30 03:27:17;;;;;;;29.58;5.07;;;6.10;99.90;;;;;;5056882;28;20037;-62
2022/01/30 03:29:50;;;;;;;30.00;4.65;;;5.90;99.90;;;;;;5055282;28;20458;-62
2022/01/30 03:32:16;;;;;;;27.40;4.82;;;5.90;99.90;;;;;;5056639;28;20414;-61
2022/01/30 03:34:41;;;;;;;26.92;5.60;;;5.90;99.90;;;;;;5054150;28;20048;-62
2022/01/30 03:37:07;;;;;;;36.67;7.65;;;6.00;99.90;;;;;;5056827;28;20037;-61
2022/01/30 03:39:33;;;;;;;30.63;6.63;;;5.80;99.90;;;;;;5055861;28;20048;-61
2022/01/30 03:41:58;;;;;;;27.55;5.90;;;5.90;99.90;;;;;;5057185;28;20037;-61
2022/01/30 03:44:24;;;;;;;32.90;6.22;;;;;;;;;;5055006;28;20410;-61
2022/01/30 03:46:50;;;;;;;36.17;5.90;;;5.90;99.90;;;;;;5055940;28;20063;-62
2022/01/30 03:49:15;;;;;;;29.75;5.55;;;5.90;99.90;;;;;;5055403;28;20060;-61
2022/01/30 03:51:41;;;;;;;30.38;6.72;;;6.00;99.90;;;;;;5049087;28;20030;-62
2022/01/30 03:54:06;;;;;;;35.70;5.90;;;5.70;99.90;;;;;;5036986;28;20120;-61
2022/01/30 03:56:32;;;;;;;32.42;6.28;;;5.90;99.90;;;;;;5037178;28;20041;-62
2022/01/30 03:58:58;;;;;;;29.75;5.75;;;6.10;99.90;;;;;;5037154;28;20038;-61
2022/01/30 04:01:24;;;;;;;33.83;6.70;;;;;;;;;;5035415;28;20165;-62
2022/01/30 04:03:49;;;;;;;30.00;6.40;;;6.00;99.90;;;;;;5035586;28;20400;-61
2022/01/30 04:06:15;;;;;;;35.83;6.07;;;6.10;99.90;;;;;;5036452;28;20081;-62
2022/01/30 04:08:41;;;;;;;42.63;6.70;;;6.00;99.90;;;;;;5036508;28;20041;-60
2022/01/30 04:11:06;;;;;;;33.33;5.40;;;6.10;99.90;;;;;;5019675;28;20068;-60
2022/01/30 04:13:32;;;;;;;29.40;5.65;;;6.10;99.90;;;;;;5037573;28;20403;-60
2022/01/30 04:15:58;;;;;;;29.83;5.82;;;6.10;99.90;;;;;;5037349;28;20048;-60
2022/01/30 04:18:23;;;;;;;31.60;6.70;;;6.10;99.90;;;;;;5036160;28;20076;-59
2022/01/30 04:20:51;;;;;;;26.45;5.18;;;6.10;99.90;;;;;;5037680;28;20049;-63
2022/01/30 04:23:17;;;;;;;27.63;5.60;;;6.20;99.90;;;;;;5037476;28;20037;-62
2022/01/30 04:25:42;;;;;;;29.85;5.63;;;6.20;99.90;;;;;;5038655;28;20048;-64
2022/01/30 04:28:08;;;;;;;42.78;6.45;;;6.30;99.90;;;;;;5038299;28;20038;-63
2022/01/30 04:30:34;;;;;;;26.02;6.07;;;6.30;99.90;;;;;;5037098;28;20049;-63
2022/01/30 04:33:00;;;;;;;26.88;6.28;;;6.20;99.90;;;;;;5037325;28;20104;-63
2022/01/30 04:35:29;;;;;;;26.15;5.47;;;6.30;99.90;;;;;;5037070;28;20052;-63
2022/01/30 04:56:55;;;;;;;38.22;5.38;;;6.10;99.90;;;;;;5036070;28;20049;-63
2022/01/30 05:05:11;;;;;;;31.45;5.93;;;6.10;99.90;;;;;;4998316;28;20046;-63
2022/01/30 05:07:38;;;;;;;31.15;6.53;;;6.00;99.90;;;;;;5019651;28;20522;-63
2022/01/30 05:10:06;;;;;;;33.72;6.10;;;6.10;99.90;;;;;;5035805;28;20289;-63
2022/01/30 05:12:41;;;;;;;39.05;6.32;;;5.90;99.90;;;;;;5037024;28;20053;-63
2022/01/30 05:15:08;;;;;;;35.35;8.73;;;6.00;99.90;;;;;;5035938;28;20033;-63
2022/01/30 05:17:34;;;;;;;32.67;6.22;;;5.70;99.90;;;;;;5033971;28;20052;-63
2022/01/30 05:20:00;;;;;;;34.58;5.68;;;5.90;99.90;;;;;;5033754;28;20128;-64
2022/01/30 05:22:26;;;;;;;30.38;5.50;;;6.00;99.90;;;;;;5032653;28;20479;-63
2022/01/30 05:24:52;;;;;;;48.53;8.13;;;6.00;99.90;;;;;;5032893;28;20040;-63
2022/01/30 05:27:18;;;;;;;29.83;6.07;;;;;;;;;;5032784;28;20045;-63
2022/01/30 05:29:44;;;;;;;33.80;7.40;;;;;;;;;;5030520;28;20045;-63
2022/01/30 05:32:10;;;;;;;30.77;6.55;;;6.10;99.90;;;;;;5028298;28;20072;-62
2022/01/30 05:34:36;;;;;;;26.70;5.43;;;6.00;99.90;;;;;;5041022;28;20463;-63
2022/01/30 05:37:02;;;;;;;34.95;6.63;;;;;;;;;;5048281;28;20041;-62
2022/01/30 05:39:28;;;;;;;38.63;6.47;;;;;;;;;;5026273;28;20033;-62
2022/01/30 05:41:56;;;;;;;33.30;7.88;;;;;;;;;;5027557;28;20049;-63
2022/01/30 05:44:23;;;;;;;31.92;5.57;;;6.00;99.90;;;;;;5029887;28;20057;-63
2022/01/30 05:46:53;;;;;;;29.25;6.13;;;5.90;99.90;;;;;;5031404;28;20131;-63
2022/01/30 05:49:20;;;;;;;32.60;6.93;;;;;;;;;;5031262;28;20111;-62
2022/01/30 05:51:45;;;;;;;41.72;7.07;;;5.80;99.90;;;;;;5031142;28;20487;-63
2022/01/30 05:54:11;;;;;;;34.80;7.28;;;;;;;;;;5032593;28;20103;-63
2022/01/30 05:56:37;;;;;;;34.92;7.07;;;5.70;99.90;;;;;;5032407;28;20053;-62
2022/01/30 05:59:03;;;;;;;37.55;7.60;;;5.60;99.90;;;;;;5031265;28;20041;-63
2022/01/30 06:01:29;;;;;;;25.65;5.57;;;;;;;;;;5031114;28;20082;-64
2022/01/30 06:03:55;;;;;;;42.30;7.95;;;5.70;99.90;;;;;;5032700;28;20402;-63
2022/01/30 06:06:21;;;;;;;38.25;6.97;;;5.60;99.90;;;;;;5033945;28;20117;-63
2022/01/30 06:08:58;;;;;;;33.63;6.10;;;5.60;99.90;;;;;;5035480;28;20120;-63
2022/01/30 06:11:24;;;;;;;39.83;6.95;;;5.70;99.90;;;;;;5031278;28;20053;-63
2022/01/30 06:13:50;;;;;;;36.17;7.32;;;5.80;99.90;;;;;;5034819;28;20491;-63
2022/01/30 06:16:15;;;;;;;32.38;6.13;;;6.10;99.90;;;;;;5035015;28;20045;-64
2022/01/30 06:18:41;;;;;;;40.60;7.28;;;5.90;99.90;;;;;;5035214;28;20099;-63
2022/01/30 06:21:07;;;;;;;36.00;6.07;;;;;;;;;;5033822;28;20344;-62
2022/01/30 06:23:32;;;;;;;38.88;7.47;;;5.90;99.90;;;;;;5034807;28;20364;-62
2022/01/30 06:25:58;;;;;;;28.10;7.63;;;6.00;99.90;;;;;;5036101;28;20040;-63
2022/01/30 06:28:24;;;;;;;38.03;6.32;;;5.90;99.90;;;;;;5036069;28;20045;-63
2022/01/30 06:30:50;;;;;;;39.67;7.55;;;5.80;99.90;;;;;;5018544;28;20052;-64
2022/01/30 06:33:15;;;;;;;32.25;8.05;;;6.00;99.90;;;;;;5036163;28;20041;-63
2022/01/30 06:35:41;;;;;;;32.63;6.47;;;6.00;99.90;;;;;;5034973;28;20087;-64
2022/01/30 06:38:07;;;;;;;28.80;6.20;;;;;;;;;;5029473;28;20038;-63
2022/01/30 06:40:33;;;;;;;44.03;7.38;;;;;;;;;;5030011;28;20562;-62
2022/01/30 06:42:59;;;;;;;42.10;7.10;;;6.10;99.90;;;;;;5029918;28;20116;-62
2022/01/30 06:45:26;;;;;;;33.42;7.00;;;;;;;;;;5034106;28;20060;-64
2022/01/30 06:47:52;;;;;;;36.47;7.47;;;;;;;;;;5033112;28;20049;-64
2022/01/30 06:50:18;;;;;;;41.88;7.65;;;6.10;99.90;;;;;;5034182;28;20145;-64
2022/01/30 06:52:44;;;;;;;34.20;6.45;;;6.10;99.90;;;;;;5017902;28;20052;-64
2022/01/30 06:55:10;;;;;;;42.08;7.03;;;;;;;;;;5014768;28;20057;-62
2022/01/30 06:57:47;;;;;;;39.40;6.88;;;6.20;99.90;;;;;;5030673;28;20483;-64
2022/01/30 07:00:13;;;;;;;38.50;8.20;;;6.20;99.90;;;;;;5034272;28;20052;-63
2022/01/30 07:02:39;;;;;;;36.13;5.90;;;6.20;99.90;;;;;;5034356;28;20040;-64
2022/01/30 07:05:05;;;;;;;30.10;7.70;;;6.20;99.90;;;;;;5034180;28;20132;-64
2022/01/30 07:07:31;;;;;;;33.65;7.28;;;;;;;;;;5032841;28;20045;-63
2022/01/30 07:09:57;;;;;;;34.30;6.88;;;;;;;;;;5032724;28;20106;-64
2022/01/30 07:12:25;;;;;;;34.05;5.80;;;6.70;99.90;;;;;;5033827;28;20041;-62
2022/01/30 07:14:51;;;;;;;39.15;7.45;;;;;;;;;;5035107;28;20045;-64
2022/01/30 07:17:17;;;;;;;33.50;6.07;;;;;;;;;;5033594;28;20121;-62
2022/01/30 07:19:43;;;;;;;35.15;6.78;;;6.40;99.90;;;;;;5034580;28;20128;-63
2022/01/30 07:22:08;;;;;;;45.88;7.68;;;6.30;99.90;;;;;;5033790;28;20514;-63
2022/01/30 07:24:34;;;;;;;37.00;6.40;;;6.50;99.90;;;;;;5034861;28;20038;-64
2022/01/30 07:27:00;;;;;;;42.10;6.97;;;6.50;99.90;;;;;;5034889;28;20112;-63
2022/01/30 07:29:26;;;;;;;42.08;7.40;;;;;;;;;;5033413;28;20502;-63
2022/01/30 07:31:52;;;;;;;40.97;7.68;;;;;;;;;;5034930;28;20087;-63
2022/01/30 07:34:20;;;;;;;28.10;5.53;;;6.40;99.90;;;;;;5033647;28;20077;-63
2022/01/30 07:36:46;;;;;;;34.33;7.20;;;6.40;99.90;;;;;;5034980;28;20084;-64
2022/01/30 07:39:12;;;;;;;37.47;7.13;;;6.50;99.90;;;;;;5017029;28;20138;-63
2022/01/30 07:41:37;;;;;;;39.17;8.38;;;6.40;99.90;;;;;;5033269;28;20045;-62
2022/01/30 07:44:04;;;;;;;34.05;6.60;;;;;;;;;;5032901;28;20069;-63
2022/01/30 07:46:30;;;;;;;40.75;5.43;;;6.40;99.90;;;;;;5032685;28;20045;-63
2022/01/30 07:48:56;;;;;;;37.58;7.22;;;6.70;99.90;;;;;;5042524;28;20046;-63
2022/01/30 07:51:22;;;;;;;35.38;6.78;;;;;;;;;;5048320;28;20076;-63
2022/01/30 07:53:48;;;;;;;34.08;7.00;;;6.60;99.90;;;;;;5033160;28;20388;-64
2022/01/30 07:56:14;;;;;;;33.97;6.88;;;6.40;99.90;;;;;;5024563;28;20038;-63
2022/01/30 07:58:40;;;;;;;42.33;9.00;;;;;;;;;;5043367;28;20395;-63
2022/01/30 08:01:05;;;;;;;34.67;7.05;;;6.80;99.90;;;;;;5048474;28;20048;-64
2022/01/30 08:03:31;;;;;;;46.90;8.27;;;6.50;99.90;;;;;;5054204;28;20118;-64
2022/01/30 08:05:57;;;;;;;45.92;7.50;;;6.40;99.90;;;;;;5053957;28;20157;-64
2022/01/30 08:08:22;;;;;;;48.78;9.13;;;6.40;99.90;;;;;;5053822;28;20036;-64
2022/01/30 08:10:49;;;;;;;31.75;6.95;;;;;;;;;;5054022;28;20627;-63
2022/01/30 08:13:16;;;;;;;34.92;6.60;;;6.30;99.90;;;;;;5053877;28;20041;-65
2022/01/30 08:15:45;;;;;;;38.53;7.97;;;6.60;99.90;;;;;;5051435;28;20051;-64
2022/01/30 08:18:11;;;;;;;38.67;7.68;;;6.60;99.90;;;;;;5036395;28;20037;-64
2022/01/30 08:20:37;;;;;;;42.95;7.13;;;;;;;;;;5052315;28;20372;-64
2022/01/30 08:23:10;;;;;;;45.83;7.70;;;6.50;99.90;;;;;;5052453;28;20186;-64
2022/01/30 08:25:36;;;;;;;44.88;7.60;;;6.50;99.90;;;;;;5052230;28;20055;-64
2022/01/30 08:28:02;;;;;;;29.55;6.95;;;6.70;99.90;;;;;;5053433;28;20453;-64
2022/01/30 08:30:28;;;;;;;35.75;8.40;;;6.70;99.90;;;;;;5047664;28;20091;-64
2022/01/30 08:32:54;;;;;;;36.90;7.15;;;6.80;99.90;;;;;;5034837;28;20045;-64
2022/01/30 08:35:20;;;;;;;33.72;7.07;;;6.80;99.90;;;;;;5032474;28;20026;-64
2022/01/30 08:37:46;;;;;;;40.17;7.53;;;7.10;99.90;;;;;;5032095;28;20474;-63
2022/01/30 08:40:14;;;;;;;35.92;6.65;;;;;;;;;;5036281;28;20147;-64
2022/01/30 08:42:40;;;;;;;39.33;8.23;;;7.20;99.90;;;;;;5050760;28;20099;-63
2022/01/30 08:45:08;;;;;;;44.83;7.85;;;7.20;99.90;;;;;;5050731;28;20045;-64
2022/01/30 08:47:34;;;;;;;42.38;8.18;;;7.20;99.90;;;;;;5043598;28;20065;-63
2022/01/30 08:50:00;;;;;;;38.60;7.10;;;;;;;;;;5032129;28;20499;-63
2022/01/30 08:52:26;;;;;;;37.90;6.82;;;;;;;;;;5031952;28;20545;-63
2022/01/30 08:54:53;;;;;;;38.83;6.88;;;;;;;;;;5031828;28;20084;-64
2022/01/30 08:57:19;;;;;;;31.02;6.97;;;;;;;;;;5030395;28;20041;-64
2022/01/30 08:59:45;;;;;;;34.28;8.07;;;7.30;99.90;;;;;;5028411;28;20170;-64
2022/01/30 09:02:11;;;;;;;34.13;5.70;;;7.10;99.90;;;;;;5032092;28;20053;-65
2022/01/30 09:04:36;;;;;;;30.92;7.65;;;7.30;99.90;;;;;;5033105;28;20045;-64
2022/01/30 09:07:02;;;;;;;45.45;6.80;;;7.20;99.90;;;;;;5033014;28;20041;-64
2022/01/30 09:09:30;;;;;;;35.83;8.88;;;;;;;;;;5031739;28;20033;-64
2022/01/30 09:11:57;;;;;;;28.38;7.00;;;6.90;99.90;;;;;;5049222;28;20170;-64
2022/01/30 09:14:24;;;;;;;31.02;5.50;;;7.10;99.90;;;;;;5051478;28;20510;-63
2022/01/30 09:16:50;;;;;;;42.17;7.03;;;;;;;;;;5049268;28;20041;-63
2022/01/30 09:19:15;;;;;;;41.42;8.20;;;7.50;99.90;;;;;;5046549;28;20730;-65
2022/01/30 09:21:41;;;;;;;32.25;6.10;;;;;;;;;;5045957;28;20090;-63
2022/01/30 09:24:07;;;;;;;32.42;6.20;;;;;;;;;;5048093;28;20033;-64
2022/01/30 09:26:33;;;;;;;32.88;6.82;;;;;;;;;;5047568;28;20040;-64
2022/01/30 09:28:59;;;;;;;30.67;5.82;;;8.70;99.90;;;;;;5030220;28;20037;-64
2022/01/30 09:31:25;;;;;;;35.00;7.05;;;;;;;;;;5026408;28;20403;-63
2022/01/30 09:33:52;;;;;;;32.13;6.22;;;8.90;99.90;;;;;;5028407;28;20045;-64
2022/01/30 09:36:18;;;;;;;32.22;6.45;;;;;;;;;;5029651;28;20084;-62
2022/01/30 09:38:44;;;;;;;32.60;7.28;;;9.30;99.90;;;;;;5012869;28;20037;-64
2022/01/30 09:41:10;;;;;;;28.98;5.90;;;9.40;99.90;;;;;;5029911;28;20072;-63
2022/01/30 09:43:36;;;;;;;36.90;7.47;;;9.60;99.90;;;;;;5031763;28;20053;-64
2022/01/30 09:46:03;;;;;;;34.38;7.35;;;9.70;99.90;;;;;;5028912;28;20127;-64
2022/01/30 09:48:34;;;;;;;41.05;7.05;;;9.70;99.90;;;;;;5028583;28;20559;-64
2022/01/30 09:51:02;;;;;;;34.80;6.22;;;9.80;99.90;;;;;;5026555;28;20085;-64
2022/01/30 09:53:29;;;;;;;37.38;7.13;;;;;;;;;;5013487;28;20060;-64
2022/01/30 09:55:54;;;;;;;32.78;7.30;;;9.90;99.90;;;;;;5030146;28;20076;-64
2022/01/30 09:58:20;;;;;;;32.40;8.27;;;10.20;99.90;;;;;;5030904;28;20085;-64
2022/01/30 10:00:46;;;;;;;32.50;8.90;;;10.30;99.90;;;;;;5037161;28;20040;-63
2022/01/30 10:03:11;;;;;;;35.90;7.63;;;10.00;99.90;;;;;;5050715;28;20076;-64
2022/01/30 10:05:38;;;;;;;38.88;8.05;;;;;;;;;;5049827;28;20056;-63
2022/01/30 10:08:05;;;;;;;39.35;6.75;;;9.60;99.90;;;;;;5044789;28;20045;-64
2022/01/30 10:10:31;;;;;;;39.22;7.97;;;9.40;99.90;;;;;;5030379;28;20091;-66
2022/01/30 10:13:04;;;;;;;33.70;7.03;;;9.20;99.90;;;;;;5032593;28;20069;-65
2022/01/30 10:15:31;;;;;;;48.20;8.00;;;8.90;99.90;;;;;;5034074;28;20041;-64
2022/01/30 10:17:57;;;;;;;42.47;7.18;;;;;;;;;;5054521;28;20037;-64
2022/01/30 10:20:25;;;;;;;34.50;7.18;;;8.80;99.90;;;;;;5043006;28;20045;-63
2022/01/30 10:22:55;;;;;;;41.80;7.63;;;8.70;99.90;;;;;;5046074;28;20037;-64
2022/01/30 10:25:30;;;;;;;42.17;7.55;;;9.10;99.90;;;;;;5041164;28;20055;-62
2022/01/30 10:28:15;;;;;;;42.80;8.75;;;9.40;99.90;;;;;;5043433;28;20044;-62
2022/01/30 10:30:43;;;;;;;42.63;8.98;;;;;;;;;;5037760;28;20055;-63
2022/01/30 10:33:10;;;;;;;37.35;6.78;;;10.10;99.90;;;;;;5038690;28;20043;-64
2022/01/30 10:35:46;;;;;;;42.00;7.13;;;10.20;99.90;;;;;;5036959;28;20036;-62
2022/01/30 10:38:27;;;;;;;36.00;7.15;;;10.40;99.90;;;;;;5035698;28;20041;-64
2022/01/30 10:40:57;;;;;;;35.92;8.05;;;10.60;99.90;;;;;;5041919;28;20037;-63
2022/01/30 10:43:23;;;;;;;31.25;6.43;;;;;;;;;;5045540;28;20079;-62
2022/01/30 10:45:49;;;;;;;30.98;6.72;;;10.90;99.90;;;;;;5043628;28;20051;-63
2022/01/30 10:48:17;;;;;;;27.65;6.10;;;10.80;99.90;;;;;;5046675;28;20410;-65
2022/01/30 10:50:47;;;;;;;42.25;8.20;;;11.00;99.90;;;;;;5044169;28;20060;-64
2022/01/30 10:53:18;;;;;;;44.13;7.07;;;10.90;99.90;;;;;;5045478;28;20073;-63
2022/01/30 10:55:45;;;;;;;38.08;8.27;;;;;;;;;;5052278;28;20056;-64
2022/01/30 10:58:17;;;;;;;31.55;7.75;;;10.90;99.90;;;;;;5049898;28;20049;-64
2022/01/30 11:00:43;;;;;;;28.45;7.28;;;;;;;;;;5050745;28;20093;-64
2022/01/30 11:03:11;;;;;;;30.88;7.68;;;10.60;99.90;;;;;;5047463;28;20044;-65
2022/01/30 11:05:59;;;;;;;35.25;6.43;;;10.20;99.90;;;;;;5049464;28;20502;-63
2022/01/30 11:08:26;;;;;;;33.03;6.78;;;10.60;99.90;;;;;;5050574;28;20036;-62
2022/01/30 11:11:07;;;;;;;34.40;7.65;;;9.80;99.90;;;;;;5050115;28;20064;-63
2022/01/30 11:13:33;;;;;;;34.15;6.53;;;9.80;99.90;;;;;;5043091;28;20049;-63
2022/01/30 11:17:05;;;;;;;36.40;6.25;;;9.70;99.90;;;;;;5030823;28;20547;-62
2022/01/30 11:18:59;;;;;;;35.28;8.52;;;9.60;99.90;;;;;;5016130;28;20120;-63
2022/01/30 11:21:28;;;;;;;37.40;6.50;;;9.50;99.90;;;;;;5030236;28;20061;-64
2022/01/30 11:23:57;;;;;;;28.80;6.40;;;9.70;99.90;;;;;;5030712;28;20041;-63
2022/01/30 11:26:23;;;;;;;35.80;7.20;;;9.40;99.90;;;;;;5045175;28;20144;-62
2022/01/30 11:28:49;;;;;;;35.58;8.55;;;9.60;99.90;;;;;;5035882;28;20792;-64
2022/01/30 11:31:16;;;;;;;30.23;6.35;;;9.70;99.90;;;;;;5024975;28;20052;-62
2022/01/30 11:33:43;;;;;;;34.13;6.03;;;9.70;99.90;;;;;;5024971;28;20056;-64
2022/01/30 11:36:09;;;;;;;36.88;6.55;;;;;;;;;;5026485;28;20053;-62
2022/01/30 11:38:36;;;;;;;34.55;6.32;;;;;;;;;;5031877;28;20056;-64
2022/01/30 11:41:19;;;;;;;39.97;6.57;;;9.80;99.90;;;;;;5031684;28;20052;-64
2022/01/30 11:44:19;;;;;;;29.75;5.78;;;9.90;99.90;;;;;;5034500;28;20037;-63
2022/01/30 11:46:59;;;;;;;27.92;5.30;;;9.90;99.90;;;;;;5047610;28;20041;-63
2022/01/30 11:49:43;;;;;;;23.60;5.88;;;9.90;99.90;;;;;;5048746;28;20113;-64
2022/01/30 11:52:11;;;;;;;27.98;6.35;;;10.00;99.90;;;;;;5043154;28;20029;-64
2022/01/30 11:54:47;;;;;;;34.50;11.05;;;9.90;99.90;;;;;;5031370;28;20056;-64
2022/01/30 11:57:22;;;;;;;41.92;8.93;;;10.50;99.90;;;;;;5031071;28;20095;-65
2022/01/30 11:59:49;;;;;;;42.60;17.67;;;11.00;99.90;;;;;;5016269;28;20073;-63
2022/01/30 12:02:38;;;;;;;33.22;7.38;;;11.00;99.90;;;;;;5013010;28;20057;-64
2022/01/30 12:05:04;;;;;;;26.08;6.28;;;;;;;;;;5025672;28;20050;-63
2022/01/30 12:07:36;;;;;;;28.27;5.82;;;10.70;99.90;;;;;;5016613;28;20116;-64
2022/01/30 12:10:20;;;;;;;25.80;6.07;;;10.70;99.90;;;;;;5047412;28;20494;-64
2022/01/30 12:12:52;;;;;;;25.67;6.25;;;10.80;99.90;;;;;;5013645;28;20037;-62
2022/01/30 12:15:40;;;;;;;29.42;10.95;;;10.70;99.90;;;;;;5046045;28;20041;-64
2022/01/30 12:18:07;;;;;;;32.15;8.57;;;11.00;99.90;;;;;;5054060;28;20144;-64
2022/01/30 12:21:13;;;;;;;30.98;6.55;;;10.80;99.90;;;;;;5053927;28;20079;-64
2022/01/30 12:23:41;;;;;;;25.13;5.82;;;11.10;99.90;;;;;;5053987;28;20037;-65
2022/01/30 12:26:14;;;;;;;27.80;5.45;;;11.10;99.90;;;;;;5053657;28;20546;-65
2022/01/30 12:28:50;;;;;;;31.92;6.03;;;11.50;99.90;;;;;;5043653;28;20120;-65
2022/01/30 12:31:30;;;;;;;27.45;5.93;;;11.30;99.90;;;;;;5033864;28;20132;-66
2022/01/30 12:33:59;;;;;;;26.80;4.97;;;10.90;99.90;;;;;;5033551;28;20541;-65
2022/01/30 12:36:25;;;;;;;25.27;5.75;;;10.60;99.90;;;;;;5016387;28;20067;-65
2022/01/30 12:38:56;;;;;;;31.13;5.95;;;10.30;99.90;;;;;;5032281;28;20049;-65
2022/01/30 12:41:24;;;;;;;30.20;5.50;;;9.90;99.90;;;;;;5032089;28;20045;-64
2022/01/30 12:43:55;;;;;;;29.80;6.75;;;10.20;99.90;;;;;;5033474;28;20038;-63
2022/01/30 12:46:30;;;;;;;37.10;6.97;;;10.10;99.90;;;;;;5033575;28;20034;-63
2022/01/30 12:49:05;;;;;;;26.58;6.22;;;10.00;99.90;;;;;;5048416;28;20045;-63
2022/01/30 12:51:31;;;;;;;32.58;6.22;;;9.90;99.90;;;;;;5024090;28;20093;-63
2022/01/30 12:53:57;;;;;;;25.48;4.88;;;10.60;99.90;;;;;;5013773;28;20140;-64
2022/01/30 12:56:24;;;;;;;36.08;6.53;;;10.50;99.90;;;;;;5028691;28;20061;-64
2022/01/30 12:58:54;;;;;;;27.67;5.68;;;10.30;99.90;;;;;;5039434;28;20037;-64
2022/01/30 13:01:24;;;;;;;30.15;5.47;;;10.30;99.90;;;;;;5029406;28;20033;-64
2022/01/30 13:04:08;;;;;;;27.00;5.60;;;11.20;99.90;;;;;;5031852;28;20037;-64
2022/01/30 13:06:40;;;;;;;24.85;5.10;;;12.00;99.90;;;;;;5031929;28;20034;-64
2022/01/30 13:09:06;;;;;;;30.50;5.53;;;12.90;99.90;;;;;;5032042;28;20091;-63
2022/01/30 13:11:32;;;;;;;23.80;6.03;;;13.40;99.90;;;;;;5032014;28;20045;-64
2022/01/30 13:14:01;;;;;;;26.15;4.93;;;13.60;99.90;;;;;;5031518;28;20041;-64
2022/01/30 13:16:35;;;;;;;26.67;5.32;;;13.40;99.90;;;;;;5039628;28;20044;-64
2022/01/30 13:19:03;;;;;;;20.33;5.07;;;13.30;99.90;;;;;;5045588;28;20475;-65
2022/01/30 13:21:31;;;;;;;24.25;6.32;;;12.70;99.40;;;;;;5034070;28;20072;-65
2022/01/30 13:23:58;;;;;;;29.20;5.68;;;12.20;99.90;;;;;;5038956;28;20057;-66
2022/01/30 13:26:42;;;;;;;34.28;6.78;;;11.80;99.90;;;;;;5031758;28;20384;-66
2022/01/30 13:29:11;;;;;;;35.17;5.85;;;11.90;99.90;;;;;;5029387;28;20033;-64
2022/01/30 13:31:37;;;;;;;31.98;7.13;;;11.90;99.90;;;;;;5045251;28;20057;-65
2022/01/30 13:34:22;;;;;;;20.80;6.30;;;11.80;99.90;;;;;;5050303;28;20075;-65
2022/01/30 13:36:54;;;;;;;29.80;5.25;;;11.70;99.90;;;;;;5050032;28;20076;-63
2022/01/30 13:39:27;;;;;;;26.20;6.07;;;11.40;99.90;;;;;;5046613;28;20048;-64
2022/01/30 13:42:15;;;;;;;26.35;5.50;;;11.10;99.90;;;;;;5028907;28;20508;-64
2022/01/30 13:44:53;;;;;;;32.10;5.35;;;10.90;99.90;;;;;;5048278;28;20072;-63
2022/01/30 13:47:22;;;;;;;29.75;5.75;;;10.80;99.90;;;;;;5046815;28;20043;-63
2022/01/30 13:49:50;;;;;;;29.05;5.97;;;10.80;99.90;;;;;;5049166;28;20080;-64
2022/01/30 13:52:18;;;;;;;32.55;7.05;;;10.60;99.90;;;;;;5048305;28;20041;-64
2022/01/30 13:55:00;;;;;;;31.73;5.82;;;8.60;99.90;;;;;;5033002;28;20045;-65
2022/01/30 13:57:33;;;;;;;31.00;5.70;;;10.20;99.90;;;;;;5039536;28;20431;-64
2022/01/30 14:00:13;;;;;;;38.08;6.28;;;10.00;99.90;;;;;;5043716;28;20460;-64
2022/01/30 14:03:00;;;;;;;37.72;6.47;;;9.90;99.90;;;;;;5032546;28;20068;-65